sensor_id;sensor_type;location;lat;lon;timestamp;pressure;altitude;pressure_sealevel;temperature;humidity
68594;BME280;55563;52.416;13.548;2022-11-23T00:03:21;99975.22;;;-0.10;100.00
68594;BME280;55563;52.416;13.548;2022-11-23T00:05:22;99975.25;;;-0.16;100.00
68594;BME280;55563;52.416;13.548;2022-11-23T00:07:23;99968.47;;;-0.17;100.00
68594;BME280;55563;52.416;13.548;2022-11-23T00:09:23;99969.88;;;-0.15;100.00
68594;BME280;55563;52.416;13.548;2022-11-23T00:11:26;99974.06;;;-0.20;100.00
68594;BME280;55563;52.416;13.548;2022-11-23T00:13:27;99965.47;;;-0.14;100.00
68594;BME280;55563;52.416;13.548;2022-11-23T00:15:27;99977.63;;;-0.21;100.00
68594;BME280;55563;52.416;13.548;2022-11-23T00:17:28;99971.50;;;-0.27;100.00
68594;BME280;55563;52.416;13.548;2022-11-23T00:19:29;99975.06;;;-0.28;100.00
68594;BME280;55563;52.416;13.548;2022-11-23T00:21:30;99963.50;;;-0.19;100.00
68594;BME280;55563;52.416;13.548;2022-11-23T00:23:32;99960.75;;;-0.24;100.00
68594;BME280;55563;52.416;13.548;2022-11-23T00:25:33;99965.34;;;-0.19;100.00
68594;BME280;55563;52.416;13.548;2022-11-23T00:27:34;99959.16;;;-0.18;100.00
68594;BME280;55563;52.416;13.548;2022-11-23T00:29:34;99959.72;;;-0.10;100.00
68594;BME280;55563;52.416;13.548;2022-11-23T00:31:35;99952.75;;;-0.09;100.00
68594;BME280;55563;52.416;13.548;2022-11-23T00:33:36;99951.19;;;-0.10;100.00
68594;BME280;55563;52.416;13.548;2022-11-23T00:35:38;99945.63;;;-0.14;100.00
68594;BME280;55563;52.416;13.548;2022-11-23T00:37:38;99956.75;;;-0.13;100.00
68594;BME280;55563;52.416;13.548;2022-11-23T00:39:39;99962.09;;;-0.08;100.00
68594;BME280;55563;52.416;13.548;2022-11-23T00:41:40;99965.09;;;-0.18;100.00
68594;BME280;55563;52.416;13.548;2022-11-23T00:43:41;99962.34;;;-0.23;100.00
68594;BME280;55563;52.416;13.548;2022-11-23T00:45:42;99969.69;;;-0.20;100.00
68594;BME280;55563;52.416;13.548;2022-11-23T00:47:42;99964.28;;;-0.12;100.00
68594;BME280;55563;52.416;13.548;2022-11-23T00:49:43;99971.06;;;-0.17;100.00
68594;BME280;55563;52.416;13.548;2022-11-23T00:51:43;99977.81;;;-0.16;100.00
68594;BME280;55563;52.416;13.548;2022-11-23T00:53:44;99981.41;;;-0.24;100.00
68594;BME280;55563;52.416;13.548;2022-11-23T00:55:53;99978.44;;;-0.27;100.00
68594;BME280;55563;52.416;13.548;2022-11-23T00:57:54;99980.41;;;-0.23;100.00
68594;BME280;55563;52.416;13.548;2022-11-23T00:59:55;99987.59;;;-0.25;100.00
68594;BME280;55563;52.416;13.548;2022-11-23T01:01:58;99981.44;;;-0.30;100.00
68594;BME280;55563;52.416;13.548;2022-11-23T01:04:00;99983.44;;;-0.32;100.00
68594;BME280;55563;52.416;13.548;2022-11-23T01:06:06;99983.59;;;-0.21;100.00
68594;BME280;55563;52.416;13.548;2022-11-23T01:08:08;99985.81;;;-0.31;100.00
68594;BME280;55563;52.416;13.548;2022-11-23T01:10:08;99980.47;;;-0.36;100.00
68594;BME280;55563;52.416;13.548;2022-11-23T01:12:09;99981.06;;;-0.34;100.00
68594;BME280;55563;52.416;13.548;2022-11-23T01:14:10;99978.06;;;-0.37;100.00
68594;BME280;55563;52.416;13.548;2022-11-23T01:16:16;99974.50;;;-0.43;100.00
68594;BME280;55563;52.416;13.548;2022-11-23T01:18:17;99973.34;;;-0.40;100.00
68594;BME280;55563;52.416;13.548;2022-11-23T01:20:18;99976.91;;;-0.41;100.00
68594;BME280;55563;52.416;13.548;2022-11-23T01:22:18;99976.91;;;-0.41;100.00
68594;BME280;55563;52.416;13.548;2022-11-23T01:24:20;99978.50;;;-0.40;100.00
68594;BME280;55563;52.416;13.548;2022-11-23T01:26:22;99976.47;;;-0.32;100.00
68594;BME280;55563;52.416;13.548;2022-11-23T01:28:23;99981.44;;;-0.30;100.00
68594;BME280;55563;52.416;13.548;2022-11-23T01:30:23;99985.41;;;-0.28;100.00
68594;BME280;55563;52.416;13.548;2022-11-23T01:32:25;99992.31;;;-0.15;100.00
68594;BME280;55563;52.416;13.548;2022-11-23T01:34:25;99991.72;;;-0.11;100.00
68594;BME280;55563;52.416;13.548;2022-11-23T01:36:30;99988.13;;;-0.10;100.00
68594;BME280;55563;52.416;13.548;2022-11-23T01:38:31;99987.91;;;-0.08;100.00
68594;BME280;55563;52.416;13.548;2022-11-23T01:40:47;99991.50;;;-0.09;100.00
68594;BME280;55563;52.416;13.548;2022-11-23T01:42:53;99989.69;;;-0.02;100.00
68594;BME280;55563;52.416;13.548;2022-11-23T01:47:34;99990.88;;;-0.05;100.00
68594;BME280;55563;52.416;13.548;2022-11-23T01:49:39;99997.84;;;-0.05;100.00
68594;BME280;55563;52.416;13.548;2022-11-23T01:51:44;99996.63;;;-0.03;100.00
68594;BME280;55563;52.416;13.548;2022-11-23T01:53:47;99991.47;;;0.04;100.00
68594;BME280;55563;52.416;13.548;2022-11-23T01:55:50;100003.53;;;0.10;100.00
68594;BME280;55563;52.416;13.548;2022-11-23T01:57:51;100012.31;;;0.09;100.00
68594;BME280;55563;52.416;13.548;2022-11-23T01:59:53;99999.56;;;0.14;100.00
68594;BME280;55563;52.416;13.548;2022-11-23T02:01:55;100005.31;;;0.16;100.00
68594;BME280;55563;52.416;13.548;2022-11-23T02:03:58;99999.75;;;0.13;100.00
68594;BME280;55563;52.416;13.548;2022-11-23T02:06:04;100003.94;;;0.14;100.00
68594;BME280;55563;52.416;13.548;2022-11-23T02:08:08;99997.56;;;0.16;100.00
68594;BME280;55563;52.416;13.548;2022-11-23T02:10:10;100000.13;;;0.16;100.00
68594;BME280;55563;52.416;13.548;2022-11-23T02:12:12;100002.53;;;0.18;100.00
68594;BME280;55563;52.416;13.548;2022-11-23T02:14:13;99998.34;;;0.17;100.00
68594;BME280;55563;52.416;13.548;2022-11-23T02:16:15;99993.78;;;0.19;100.00
68594;BME280;55563;52.416;13.548;2022-11-23T02:18:21;99991.13;;;0.25;100.00
68594;BME280;55563;52.416;13.548;2022-11-23T02:20:23;99990.78;;;0.22;100.00
68594;BME280;55563;52.416;13.548;2022-11-23T02:25:06;99993.16;;;0.23;100.00
68594;BME280;55563;52.416;13.548;2022-11-23T02:27:08;99991.97;;;0.19;100.00
68594;BME280;55563;52.416;13.548;2022-11-23T02:29:17;99989.38;;;0.19;100.00
68594;BME280;55563;52.416;13.548;2022-11-23T02:31:20;99992.97;;;0.18;100.00
68594;BME280;55563;52.416;13.548;2022-11-23T02:33:20;100002.09;;;0.21;100.00
68594;BME280;55563;52.416;13.548;2022-11-23T02:35:22;99999.34;;;0.16;100.00
68594;BME280;55563;52.416;13.548;2022-11-23T02:37:23;99992.56;;;0.21;100.00
68594;BME280;55563;52.416;13.548;2022-11-23T02:39:44;99994.53;;;0.26;100.00
68594;BME280;55563;52.416;13.548;2022-11-23T02:41:49;99983.00;;;0.28;100.00
68594;BME280;55563;52.416;13.548;2022-11-23T02:43:53;99990.16;;;0.26;100.00
68594;BME280;55563;52.416;13.548;2022-11-23T02:46:00;99991.38;;;0.24;100.00
68594;BME280;55563;52.416;13.548;2022-11-23T02:48:03;99983.63;;;0.24;100.00
68594;BME280;55563;52.416;13.548;2022-11-23T02:50:04;99992.38;;;0.23;100.00
68594;BME280;55563;52.416;13.548;2022-11-23T02:52:05;99994.16;;;0.22;100.00
68594;BME280;55563;52.416;13.548;2022-11-23T02:54:05;99993.59;;;0.14;100.00
68594;BME280;55563;52.416;13.548;2022-11-23T02:56:09;99997.91;;;0.20;100.00
68594;BME280;55563;52.416;13.548;2022-11-23T02:58:10;100004.31;;;0.17;100.00
68594;BME280;55563;52.416;13.548;2022-11-23T03:00:12;99997.75;;;0.15;100.00
68594;BME280;55563;52.416;13.548;2022-11-23T03:02:13;99999.94;;;0.18;100.00
68594;BME280;55563;52.416;13.548;2022-11-23T03:04:14;100005.91;;;0.12;100.00
68594;BME280;55563;52.416;13.548;2022-11-23T03:06:14;100001.75;;;0.11;100.00
68594;BME280;55563;52.416;13.548;2022-11-23T03:08:16;100000.38;;;0.08;100.00
68594;BME280;55563;52.416;13.548;2022-11-23T03:10:17;100010.09;;;0.13;100.00
68594;BME280;55563;52.416;13.548;2022-11-23T03:12:20;99999.97;;;0.11;100.00
68594;BME280;55563;52.416;13.548;2022-11-23T03:14:22;100007.34;;;0.08;100.00
68594;BME280;55563;52.416;13.548;2022-11-23T03:16:31;100000.41;;;0.02;100.00
68594;BME280;55563;52.416;13.548;2022-11-23T03:18:33;100000.81;;;-0.02;100.00
68594;BME280;55563;52.416;13.548;2022-11-23T03:20:34;100006.56;;;0.00;100.00
68594;BME280;55563;52.416;13.548;2022-11-23T03:22:36;100007.59;;;-0.14;100.00
68594;BME280;55563;52.416;13.548;2022-11-23T03:24:37;100003.63;;;-0.10;100.00
68594;BME280;55563;52.416;13.548;2022-11-23T03:26:42;100013.38;;;-0.18;100.00
68594;BME280;55563;52.416;13.548;2022-11-23T03:28:46;100014.78;;;-0.22;100.00
68594;BME280;55563;52.416;13.548;2022-11-23T03:30:49;100007.22;;;-0.24;100.00
68594;BME280;55563;52.416;13.548;2022-11-23T03:32:49;100007.84;;;-0.28;100.00
68594;BME280;55563;52.416;13.548;2022-11-23T03:34:52;100016.97;;;-0.26;100.00
68594;BME280;55563;52.416;13.548;2022-11-23T03:36:55;100013.81;;;-0.28;100.00
68594;BME280;55563;52.416;13.548;2022-11-23T03:38:56;100015.38;;;-0.27;100.00
68594;BME280;55563;52.416;13.548;2022-11-23T03:41:17;100009.44;;;-0.21;100.00
68594;BME280;55563;52.416;13.548;2022-11-23T03:43:24;100009.25;;;-0.26;100.00
68594;BME280;55563;52.416;13.548;2022-11-23T03:45:28;100010.84;;;-0.31;100.00
68594;BME280;55563;52.416;13.548;2022-11-23T03:47:29;100016.00;;;-0.25;100.00
68594;BME280;55563;52.416;13.548;2022-11-23T03:49:32;100010.84;;;-0.25;100.00
68594;BME280;55563;52.416;13.548;2022-11-23T03:51:34;100016.19;;;-0.26;100.00
68594;BME280;55563;52.416;13.548;2022-11-23T03:53:36;100007.25;;;-0.30;100.00
68594;BME280;55563;52.416;13.548;2022-11-23T03:55:37;100015.19;;;-0.32;100.00
68594;BME280;55563;52.416;13.548;2022-11-23T03:57:38;100014.63;;;-0.34;100.00
68594;BME280;55563;52.416;13.548;2022-11-23T03:59:39;100017.22;;;-0.34;100.00
68594;BME280;55563;52.416;13.548;2022-11-23T04:01:42;100012.44;;;-0.30;100.00
68594;BME280;55563;52.416;13.548;2022-11-23T04:03:52;100002.28;;;-0.32;100.00
68594;BME280;55563;52.416;13.548;2022-11-23T04:05:58;100006.09;;;-0.34;100.00
68594;BME280;55563;52.416;13.548;2022-11-23T04:08:19;100008.88;;;-0.43;100.00
68594;BME280;55563;52.416;13.548;2022-11-23T04:10:21;100018.00;;;-0.47;100.00
68594;BME280;55563;52.416;13.548;2022-11-23T04:12:40;100006.50;;;-0.51;100.00
68594;BME280;55563;52.416;13.548;2022-11-23T04:14:41;100008.47;;;-0.53;100.00
68594;BME280;55563;52.416;13.548;2022-11-23T04:16:43;100009.47;;;-0.47;100.00
68594;BME280;55563;52.416;13.548;2022-11-23T05:30:21;100015.47;;;-0.53;100.00
68594;BME280;55563;52.416;13.548;2022-11-23T05:33:06;100023.97;;;-0.53;100.00
68594;BME280;55563;52.416;13.548;2022-11-23T05:40:07;100019.41;;;-0.57;100.00
68594;BME280;55563;52.416;13.548;2022-11-23T05:44:24;100018.66;;;-0.58;100.00
68594;BME280;55563;52.416;13.548;2022-11-23T05:58:46;100009.09;;;-0.57;100.00
68594;BME280;55563;52.416;13.548;2022-11-23T06:00:47;100013.47;;;-0.58;100.00
68594;BME280;55563;52.416;13.548;2022-11-23T06:02:49;100005.53;;;-0.50;100.00
68594;BME280;55563;52.416;13.548;2022-11-23T06:04:50;100008.09;;;-0.56;100.00
68594;BME280;55563;52.416;13.548;2022-11-23T06:06:57;100008.13;;;-0.63;100.00
68594;BME280;55563;52.416;13.548;2022-11-23T06:09:01;100010.28;;;-0.66;100.00
68594;BME280;55563;52.416;13.548;2022-11-23T06:11:03;100011.50;;;-0.69;100.00
68594;BME280;55563;52.416;13.548;2022-11-23T06:13:04;100004.16;;;-0.72;100.00
68594;BME280;55563;52.416;13.548;2022-11-23T06:15:06;100008.13;;;-0.76;100.00
68594;BME280;55563;52.416;13.548;2022-11-23T06:17:08;100016.47;;;-0.80;100.00
68594;BME280;55563;52.416;13.548;2022-11-23T06:19:16;100009.53;;;-0.80;100.00
68594;BME280;55563;52.416;13.548;2022-11-23T06:21:18;100007.94;;;-0.81;100.00
68594;BME280;55563;52.416;13.548;2022-11-23T06:23:19;100015.47;;;-0.86;100.00
68594;BME280;55563;52.416;13.548;2022-11-23T06:25:20;100014.28;;;-0.83;100.00
68594;BME280;55563;52.416;13.548;2022-11-23T06:27:56;100017.28;;;-0.86;100.00
68594;BME280;55563;52.416;13.548;2022-11-23T06:30:03;100022.25;;;-0.92;100.00
68594;BME280;55563;52.416;13.548;2022-11-23T06:32:09;100017.84;;;-0.91;100.00
68594;BME280;55563;52.416;13.548;2022-11-23T06:34:10;100020.44;;;-0.91;100.00
68594;BME280;55563;52.416;13.548;2022-11-23T06:36:10;100019.06;;;-0.94;100.00
68594;BME280;55563;52.416;13.548;2022-11-23T06:38:17;100017.28;;;-0.93;100.00
68594;BME280;55563;52.416;13.548;2022-11-23T06:40:21;100014.28;;;-0.90;100.00
68594;BME280;55563;52.416;13.548;2022-11-23T06:42:23;100018.06;;;-0.93;100.00
68594;BME280;55563;52.416;13.548;2022-11-23T06:44:24;100026.41;;;-0.97;100.00
68594;BME280;55563;52.416;13.548;2022-11-23T06:46:26;100028.16;;;-0.91;100.00
68594;BME280;55563;52.416;13.548;2022-11-23T06:48:27;100033.13;;;-0.90;100.00
68594;BME280;55563;52.416;13.548;2022-11-23T06:50:30;100032.34;;;-0.97;100.00
68594;BME280;55563;52.416;13.548;2022-11-23T06:52:31;100035.50;;;-1.08;100.00
68594;BME280;55563;52.416;13.548;2022-11-23T06:54:32;100037.69;;;-1.05;100.00
68594;BME280;55563;52.416;13.548;2022-11-23T06:56:34;100040.47;;;-1.06;100.00
68594;BME280;55563;52.416;13.548;2022-11-23T06:58:36;100041.47;;;-1.07;100.00
68594;BME280;55563;52.416;13.548;2022-11-23T07:00:41;100042.84;;;-1.05;100.00
68594;BME280;55563;52.416;13.548;2022-11-23T07:02:43;100041.44;;;-1.01;100.00
68594;BME280;55563;52.416;13.548;2022-11-23T07:04:50;100052.16;;;-1.04;100.00
68594;BME280;55563;52.416;13.548;2022-11-23T07:06:53;100055.16;;;-1.07;100.00
68594;BME280;55563;52.416;13.548;2022-11-23T07:09:03;100059.50;;;-1.01;100.00
68594;BME280;55563;52.416;13.548;2022-11-23T07:11:17;100058.94;;;-0.90;100.00
68594;BME280;55563;52.416;13.548;2022-11-23T07:13:18;100053.16;;;-0.85;100.00
68594;BME280;55563;52.416;13.548;2022-11-23T07:15:19;100058.53;;;-0.80;100.00
68594;BME280;55563;52.416;13.548;2022-11-23T07:17:20;100062.72;;;-0.79;100.00
68594;BME280;55563;52.416;13.548;2022-11-23T07:19:21;100062.09;;;-0.81;100.00
68594;BME280;55563;52.416;13.548;2022-11-23T07:21:24;100060.94;;;-0.78;100.00
68594;BME280;55563;52.416;13.548;2022-11-23T07:23:24;100073.22;;;-0.87;100.00
68594;BME280;55563;52.416;13.548;2022-11-23T07:25:25;100069.44;;;-0.84;100.00
68594;BME280;55563;52.416;13.548;2022-11-23T07:27:26;100082.72;;;-0.81;100.00
68594;BME280;55563;52.416;13.548;2022-11-23T07:29:28;100080.16;;;-0.74;100.00
68594;BME280;55563;52.416;13.548;2022-11-23T07:31:29;100080.56;;;-0.71;100.00
68594;BME280;55563;52.416;13.548;2022-11-23T07:33:29;100076.00;;;-0.69;100.00
68594;BME280;55563;52.416;13.548;2022-11-23T07:35:30;100083.16;;;-0.64;100.00
68594;BME280;55563;52.416;13.548;2022-11-23T07:37:32;100082.75;;;-0.61;100.00
68594;BME280;55563;52.416;13.548;2022-11-23T07:39:33;100087.91;;;-0.61;100.00
68594;BME280;55563;52.416;13.548;2022-11-23T07:41:33;100082.16;;;-0.57;100.00
68594;BME280;55563;52.416;13.548;2022-11-23T07:43:44;100079.97;;;-0.53;100.00
68594;BME280;55563;52.416;13.548;2022-11-23T07:45:44;100079.56;;;-0.50;100.00
68594;BME280;55563;52.416;13.548;2022-11-23T07:47:56;100080.94;;;-0.48;100.00
68594;BME280;55563;52.416;13.548;2022-11-23T07:49:57;100075.41;;;-0.51;100.00
68594;BME280;55563;52.416;13.548;2022-11-23T07:51:58;100085.34;;;-0.48;100.00
68594;BME280;55563;52.416;13.548;2022-11-23T07:53:59;100080.94;;;-0.41;100.00
68594;BME280;55563;52.416;13.548;2022-11-23T07:55:59;100089.88;;;-0.30;100.00
68594;BME280;55563;52.416;13.548;2022-11-23T07:58:00;100091.66;;;-0.24;100.00
68594;BME280;55563;52.416;13.548;2022-11-23T08:00:01;100100.00;;;-0.16;100.00
68594;BME280;55563;52.416;13.548;2022-11-23T08:02:13;100095.03;;;-0.11;100.00
68594;BME280;55563;52.416;13.548;2022-11-23T08:04:14;100095.41;;;-0.07;100.00
68594;BME280;55563;52.416;13.548;2022-11-23T08:06:15;100096.38;;;-0.02;100.00
68594;BME280;55563;52.416;13.548;2022-11-23T08:08:16;100100.16;;;-0.04;100.00
68594;BME280;55563;52.416;13.548;2022-11-23T08:10:17;100110.25;;;0.11;100.00
68594;BME280;55563;52.416;13.548;2022-11-23T08:12:17;100093.75;;;0.12;100.00
68594;BME280;55563;52.416;13.548;2022-11-23T08:14:18;100105.06;;;0.17;100.00
68594;BME280;55563;52.416;13.548;2022-11-23T08:16:18;100104.69;;;0.14;100.00
68594;BME280;55563;52.416;13.548;2022-11-23T08:18:19;100102.91;;;0.14;100.00
68594;BME280;55563;52.416;13.548;2022-11-23T08:20:20;100108.06;;;0.14;100.00
68594;BME280;55563;52.416;13.548;2022-11-23T08:22:20;100104.66;;;0.20;100.00
68594;BME280;55563;52.416;13.548;2022-11-23T08:24:22;100097.84;;;0.39;100.00
68594;BME280;55563;52.416;13.548;2022-11-23T08:26:22;100102.97;;;0.52;100.00
68594;BME280;55563;52.416;13.548;2022-11-23T08:28:23;100112.06;;;0.61;100.00
68594;BME280;55563;52.416;13.548;2022-11-23T08:30:25;100106.03;;;0.74;100.00
68594;BME280;55563;52.416;13.548;2022-11-23T08:32:26;100109.75;;;0.91;100.00
68594;BME280;55563;52.416;13.548;2022-11-23T08:34:26;100101.72;;;0.99;100.00
68594;BME280;55563;52.416;13.548;2022-11-23T08:36:27;100112.59;;;1.08;100.00
68594;BME280;55563;52.416;13.548;2022-11-23T08:38:28;100106.84;;;1.06;100.00
68594;BME280;55563;52.416;13.548;2022-11-23T08:40:28;100109.22;;;1.07;100.00
68594;BME280;55563;52.416;13.548;2022-11-23T08:42:29;100115.16;;;1.14;100.00
68594;BME280;55563;52.416;13.548;2022-11-23T08:44:29;100113.47;;;1.26;100.00
68594;BME280;55563;52.416;13.548;2022-11-23T08:46:30;100105.72;;;1.26;100.00
68594;BME280;55563;52.416;13.548;2022-11-23T08:48:31;100107.91;;;1.29;100.00
68594;BME280;55563;52.416;13.548;2022-11-23T08:50:32;100107.91;;;1.29;100.00
68594;BME280;55563;52.416;13.548;2022-11-23T08:52:34;100102.91;;;1.28;100.00
68594;BME280;55563;52.416;13.548;2022-11-23T08:54:35;100103.13;;;1.26;100.00
68594;BME280;55563;52.416;13.548;2022-11-23T08:56:35;100115.38;;;1.38;100.00
68594;BME280;55563;52.416;13.548;2022-11-23T08:58:36;100112.72;;;1.44;100.00
68594;BME280;55563;52.416;13.548;2022-11-23T09:00:37;100115.72;;;1.48;100.00
68594;BME280;55563;52.416;13.548;2022-11-23T09:02:37;100116.78;;;1.58;100.00
68594;BME280;55563;52.416;13.548;2022-11-23T09:04:40;100113.16;;;1.66;100.00
68594;BME280;55563;52.416;13.548;2022-11-23T09:06:40;100114.13;;;1.71;100.00
68594;BME280;55563;52.416;13.548;2022-11-23T09:08:41;100111.13;;;1.68;100.00
68594;BME280;55563;52.416;13.548;2022-11-23T09:10:42;100116.06;;;1.76;100.00
68594;BME280;55563;52.416;13.548;2022-11-23T09:12:43;100116.56;;;1.85;100.00
68594;BME280;55563;52.416;13.548;2022-11-23T09:14:44;100110.41;;;1.86;100.00
68594;BME280;55563;52.416;13.548;2022-11-23T09:16:44;100109.75;;;1.90;100.00
68594;BME280;55563;52.416;13.548;2022-11-23T09:18:45;100111.53;;;1.90;100.00
68594;BME280;55563;52.416;13.548;2022-11-23T09:20:46;100108.00;;;1.84;100.00
68594;BME280;55563;52.416;13.548;2022-11-23T09:22:54;100107.66;;;1.81;100.00
68594;BME280;55563;52.416;13.548;2022-11-23T09:24:54;100108.44;;;1.81;100.00
68594;BME280;55563;52.416;13.548;2022-11-23T09:26:55;100106.81;;;1.87;100.00
68594;BME280;55563;52.416;13.548;2022-11-23T09:28:56;100107.31;;;1.95;100.00
68594;BME280;55563;52.416;13.548;2022-11-23T09:30:56;100112.25;;;1.97;100.00
68594;BME280;55563;52.416;13.548;2022-11-23T09:32:57;100101.78;;;2.10;100.00
68594;BME280;55563;52.416;13.548;2022-11-23T09:34:58;100109.97;;;2.07;100.00
68594;BME280;55563;52.416;13.548;2022-11-23T09:36:58;100099.19;;;2.10;100.00
68594;BME280;55563;52.416;13.548;2022-11-23T09:38:59;100102.34;;;2.12;100.00
68594;BME280;55563;52.416;13.548;2022-11-23T09:41:20;100091.75;;;2.13;100.00
68594;BME280;55563;52.416;13.548;2022-11-23T09:43:46;100098.91;;;2.18;100.00
68594;BME280;55563;52.416;13.548;2022-11-23T09:45:53;100090.91;;;2.19;100.00
68594;BME280;55563;52.416;13.548;2022-11-23T09:51:04;100095.72;;;2.34;100.00
68594;BME280;55563;52.416;13.548;2022-11-23T09:52:52;100099.50;;;2.50;100.00
68594;BME280;55563;52.416;13.548;2022-11-23T09:54:56;100095.53;;;2.66;100.00
68594;BME280;55563;52.416;13.548;2022-11-23T09:56:58;100099.84;;;2.72;100.00
68594;BME280;55563;52.416;13.548;2022-11-23T09:59:10;100088.94;;;2.81;100.00
68594;BME280;55563;52.416;13.548;2022-11-23T10:01:14;100093.91;;;2.83;100.00
68594;BME280;55563;52.416;13.548;2022-11-23T10:03:16;100098.91;;;2.96;100.00
68594;BME280;55563;52.416;13.548;2022-11-23T10:05:21;100098.13;;;3.07;100.00
68594;BME280;55563;52.416;13.548;2022-11-23T10:10:20;100098.38;;;3.17;100.00
68594;BME280;55563;52.416;13.548;2022-11-23T10:12:53;100092.09;;;3.25;100.00
68594;BME280;55563;52.416;13.548;2022-11-23T10:17:48;100095.72;;;3.47;100.00
68594;BME280;55563;52.416;13.548;2022-11-23T10:23:00;100089.75;;;3.70;100.00
68594;BME280;55563;52.416;13.548;2022-11-23T10:25:07;100091.56;;;3.69;100.00
68594;BME280;55563;52.416;13.548;2022-11-23T10:27:13;100091.56;;;3.69;100.00
68594;BME280;55563;52.416;13.548;2022-11-23T10:29:21;100096.19;;;3.67;100.00
68594;BME280;55563;52.416;13.548;2022-11-23T10:31:24;100084.44;;;3.76;100.00
68594;BME280;55563;52.416;13.548;2022-11-23T10:33:30;100088.50;;;3.84;100.00
68594;BME280;55563;52.416;13.548;2022-11-23T10:35:33;100085.78;;;3.90;100.00
68594;BME280;55563;52.416;13.548;2022-11-23T10:37:34;100086.56;;;4.03;100.00
68594;BME280;55563;52.416;13.548;2022-11-23T10:39:34;100083.84;;;4.09;100.00
68594;BME280;55563;52.416;13.548;2022-11-23T10:41:35;100078.50;;;4.16;100.00
68594;BME280;55563;52.416;13.548;2022-11-23T10:43:41;100080.53;;;4.14;100.00
68594;BME280;55563;52.416;13.548;2022-11-23T10:45:44;100085.09;;;4.07;100.00
68594;BME280;55563;52.416;13.548;2022-11-23T10:47:55;100086.75;;;4.13;100.00
68594;BME280;55563;52.416;13.548;2022-11-23T10:49:58;100080.09;;;4.17;100.00
68594;BME280;55563;52.416;13.548;2022-11-23T10:52:05;100076.03;;;4.21;100.00
68594;BME280;55563;52.416;13.548;2022-11-23T10:56:33;100079.84;;;4.30;100.00
68594;BME280;55563;52.416;13.548;2022-11-23T10:58:44;100076.16;;;4.43;100.00
68594;BME280;55563;52.416;13.548;2022-11-23T11:00:45;100074.78;;;4.52;100.00
68594;BME280;55563;52.416;13.548;2022-11-23T11:02:48;100078.03;;;4.59;100.00
68594;BME280;55563;52.416;13.548;2022-11-23T11:04:55;100076.88;;;4.66;100.00
68594;BME280;55563;52.416;13.548;2022-11-23T11:07:20;100067.81;;;4.69;100.00
68594;BME280;55563;52.416;13.548;2022-11-23T11:09:23;100066.09;;;4.74;100.00
68594;BME280;55563;52.416;13.548;2022-11-23T11:11:26;100069.91;;;4.83;100.00
68594;BME280;55563;52.416;13.548;2022-11-23T11:15:50;100071.50;;;5.01;100.00
68594;BME280;55563;52.416;13.548;2022-11-23T11:17:56;100070.88;;;5.11;100.00
68594;BME280;55563;52.416;13.548;2022-11-23T11:19:58;100059.97;;;5.14;100.00
68594;BME280;55563;52.416;13.548;2022-11-23T11:22:00;100065.19;;;5.14;100.00
68594;BME280;55563;52.416;13.548;2022-11-23T11:24:04;100061.78;;;5.13;100.00
68594;BME280;55563;52.416;13.548;2022-11-23T11:26:17;100061.41;;;5.21;100.00
68594;BME280;55563;52.416;13.548;2022-11-23T11:28:34;100061.72;;;5.08;100.00
68594;BME280;55563;52.416;13.548;2022-11-23T11:30:45;100055.09;;;5.17;100.00
68594;BME280;55563;52.416;13.548;2022-11-23T11:32:56;100055.97;;;5.06;100.00
68594;BME280;55563;52.416;13.548;2022-11-23T11:37:42;100059.19;;;4.97;100.00
68594;BME280;55563;52.416;13.548;2022-11-23T11:39:50;100062.34;;;4.99;100.00
68594;BME280;55563;52.416;13.548;2022-11-23T11:41:55;100062.00;;;4.95;100.00
68594;BME280;55563;52.416;13.548;2022-11-23T11:44:04;100052.63;;;4.94;100.00
68594;BME280;55563;52.416;13.548;2022-11-23T11:46:12;100053.50;;;5.00;100.00
68594;BME280;55563;52.416;13.548;2022-11-23T11:48:26;100049.06;;;5.00;100.00
68594;BME280;55563;52.416;13.548;2022-11-23T11:50:29;100052.47;;;5.01;100.00
68594;BME280;55563;52.416;13.548;2022-11-23T11:52:36;100058.00;;;5.04;100.00
68594;BME280;55563;52.416;13.548;2022-11-23T11:54:49;100065.00;;;5.04;100.00
68594;BME280;55563;52.416;13.548;2022-11-23T11:56:56;100061.72;;;5.08;100.00
68594;BME280;55563;52.416;13.548;2022-11-23T11:59:11;100066.06;;;5.19;100.00
68594;BME280;55563;52.416;13.548;2022-11-23T12:03:58;100059.69;;;5.27;100.00
68594;BME280;55563;52.416;13.548;2022-11-23T12:06:10;100062.50;;;5.25;100.00
68594;BME280;55563;52.416;13.548;2022-11-23T12:08:35;100057.91;;;5.33;100.00
68594;BME280;55563;52.416;13.548;2022-11-23T12:10:59;100057.91;;;5.33;100.00
68594;BME280;55563;52.416;13.548;2022-11-23T12:13:01;100061.09;;;5.35;100.00
68594;BME280;55563;52.416;13.548;2022-11-23T12:15:03;100063.06;;;5.44;100.00
68594;BME280;55563;52.416;13.548;2022-11-23T12:17:20;100058.63;;;5.45;100.00
68594;BME280;55563;52.416;13.548;2022-11-23T12:19:30;100051.91;;;5.49;100.00
68594;BME280;55563;52.416;13.548;2022-11-23T12:22:07;100048.50;;;5.48;100.00
68594;BME280;55563;52.416;13.548;2022-11-23T12:26:53;100069.84;;;5.45;100.00
68594;BME280;55563;52.416;13.548;2022-11-23T12:31:45;100064.47;;;5.52;100.00
68594;BME280;55563;52.416;13.548;2022-11-23T12:34:17;100062.66;;;5.52;100.00
68594;BME280;55563;52.416;13.548;2022-11-23T12:41:41;100058.31;;;5.58;100.00
68594;BME280;55563;52.416;13.548;2022-11-23T12:46:49;100058.84;;;5.60;100.00
68594;BME280;55563;52.416;13.548;2022-11-23T12:49:08;100058.84;;;5.60;100.00
68594;BME280;55563;52.416;13.548;2022-11-23T12:51:21;100063.59;;;5.63;100.00
68594;BME280;55563;52.416;13.548;2022-11-23T12:58:26;100060.50;;;5.66;100.00